Time,TemperatureF,DewpointF,PressureIn,WindDirection,WindDirectionDegrees,WindSpeedMPH,WindSpeedGustMPH,Humidity,HourlyPrecipIn,Conditions,Clouds,dailyrainin,SoftwareType,DateUTC
2013-07-01 00:01:00,57.3,46.6,29.79,East,90,0.0,0.0,67,0.00,,,0.00,WUHU21623XXSP,2013-07-01 04:01:00,
2013-07-01 00:07:00,57.3,47.0,29.79,East,90,0.0,0.0,68,0.00,,,0.00,WUHU21623XXSP,2013-07-01 04:07:00,
2013-07-01 00:12:00,57.1,46.8,29.79,East,90,0.0,0.0,68,0.00,,,0.00,WUHU21623XXSP,2013-07-01 04:12:00,
2013-07-01 00:38:00,56.4,46.9,29.79,East,90,0.0,0.0,70,0.00,,,0.00,WUHU21623XXSP,2013-07-01 04:38:00,
2013-07-01 01:38:00,56.2,47.4,29.80,NNE,23,0.0,0.0,72,0.00,,,0.00,WUHU21623XXSP,2013-07-01 05:38:00,
2013-07-01 02:38:00,55.3,47.2,29.79,NNE,23,0.0,0.0,74,0.00,,,0.00,WUHU21623XXSP,2013-07-01 06:38:00,
2013-07-01 03:38:00,54.4,47.1,29.79,NNE,23,0.0,0.0,76,0.00,,,0.00,WUHU21623XXSP,2013-07-01 07:38:00,
2013-07-01 04:38:00,54.3,47.6,29.80,North,0,1.3,1.3,78,0.00,,,0.00,WUHU21623XXSP,2013-07-01 08:38:00,
2013-07-01 05:38:00,54.1,47.5,29.80,NNE,23,0.0,0.0,78,0.00,,,0.00,WUHU21623XXSP,2013-07-01 09:38:00,
2013-07-01 06:38:00,53.9,47.9,29.83,North,0,0.0,0.0,80,0.00,,,0.00,WUHU21623XXSP,2013-07-01 10:38:00,
2013-07-01 07:38:00,56.1,50.1,29.83,NNE,23,0.0,0.0,80,0.00,,,0.00,WUHU21623XXSP,2013-07-01 11:38:00,
2013-07-01 08:38:00,59.5,53.7,29.84,ENE,68,0.0,0.0,81,0.00,,,0.00,WUHU21623XXSP,2013-07-01 12:38:00,
2013-07-01 09:38:00,65.8,57.8,29.85,NE,45,0.0,0.0,75,0.00,,,0.00,WUHU21623XXSP,2013-07-01 13:38:00,
2013-07-01 10:38:00,68.7,57.5,29.85,North,0,2.7,2.7,67,0.00,,,0.00,WUHU21623XXSP,2013-07-01 14:38:00,
2013-07-01 11:38:00,72.3,56.9,29.87,SSE,158,5.4,5.4,58,0.00,,,0.00,WUHU21623XXSP,2013-07-01 15:38:00,
2013-07-01 12:38:00,71.7,58.6,29.88,ENE,68,0.0,0.0,63,0.00,,,0.00,WUHU21623XXSP,2013-07-01 16:38:00,
2013-07-01 12:49:00,71.7,58.2,29.87,NNE,22,2.7,2.7,62,0.00,,,0.00,WUHU21623XXSP,2013-07-01 16:49:00,
2013-07-01 12:56:00,71.5,58.4,29.87,NNE,22,6.9,6.9,63,0.00,,,0.00,WUHU21623XXSP,2013-07-01 16:56:00,
2013-07-01 13:02:00,71.2,58.6,29.88,NE,45,4.9,6.9,64,0.00,,,0.00,WUHU21623XXSP,2013-07-01 17:02:00,
2013-07-01 13:09:00,71.7,59.1,29.88,NNE,22,3.4,4.9,64,0.00,,,0.00,WUHU21623XXSP,2013-07-01 17:09:00,
2013-07-01 13:14:00,71.7,58.6,29.88,North,0,5.8,5.8,63,0.00,,,0.00,WUHU21623XXSP,2013-07-01 17:14:00,
2013-07-01 13:19:00,72.1,59.0,29.88,NE,45,15.4,15.4,63,0.00,,,0.00,WUHU21623XXSP,2013-07-01 17:19:00,
2013-07-01 13:28:00,72.1,59.0,29.88,NE,45,3.8,3.8,63,0.00,,,0.00,WUHU21623XXSP,2013-07-01 17:28:00,
2013-07-01 13:33:00,71.7,58.6,29.88,East,90,5.1,5.1,63,0.00,,,0.00,WUHU21623XXSP,2013-07-01 17:33:00,
2013-07-01 13:38:00,71.7,58.6,29.89,NNE,22,12.8,12.8,63,0.00,,,0.00,WUHU21623XXSP,2013-07-01 17:38:00,
2013-07-01 13:45:00,72.3,59.2,29.89,East,90,5.6,12.8,63,0.00,,,0.00,WUHU21623XXSP,2013-07-01 17:45:00,
2013-07-01 13:50:00,72.4,59.3,29.89,NNE,22,11.6,11.6,63,0.00,,,0.00,WUHU21623XXSP,2013-07-01 17:50:00,
2013-07-01 13:55:00,72.4,59.3,29.89,NNW,337,3.6,11.6,63,0.00,,,0.00,WUHU21623XXSP,2013-07-01 17:55:00,
2013-07-01 14:00:00,72.3,59.6,29.89,East,90,9.4,9.4,64,0.00,,,0.00,WUHU21623XXSP,2013-07-01 18:00:00,
2013-07-01 14:07:00,72.3,59.2,29.89,NNW,337,2.5,9.4,63,0.00,,,0.00,WUHU21623XXSP,2013-07-01 18:07:00,
2013-07-01 14:12:00,72.1,59.0,29.89,NNW,337,2.5,2.5,63,0.00,,,0.00,WUHU21623XXSP,2013-07-01 18:12:00,
2013-07-01 14:17:00,71.7,58.6,29.88,NW,315,1.6,2.5,63,0.00,,,0.00,WUHU21623XXSP,2013-07-01 18:17:00,
2013-07-01 14:22:00,71.7,59.1,29.89,NE,45,2.5,2.5,64,0.00,,,0.00,WUHU21623XXSP,2013-07-01 18:22:00,
2013-07-01 14:30:00,71.9,59.3,29.89,ENE,67,3.8,3.8,64,0.00,,,0.00,WUHU21623XXSP,2013-07-01 18:30:00,
2013-07-01 14:39:00,71.7,59.1,29.89,ENE,67,11.0,11.0,64,0.00,,,0.00,WUHU21623XXSP,2013-07-01 18:39:00,
2013-07-01 14:44:00,71.4,58.3,29.89,ENE,67,11.0,11.0,63,0.00,,,0.00,WUHU21623XXSP,2013-07-01 18:44:00,
2013-07-01 14:49:00,71.2,58.2,29.89,North,0,4.0,11.0,63,0.00,,,0.00,WUHU21623XXSP,2013-07-01 18:49:00,
2013-07-01 14:54:00,70.8,58.2,29.89,ENE,67,0.0,4.0,64,0.00,,,0.00,WUHU21623XXSP,2013-07-01 18:54:00,
2013-07-01 14:59:00,70.6,57.6,29.89,NNE,22,6.7,6.7,63,0.00,,,0.00,WUHU21623XXSP,2013-07-01 18:59:00,
2013-07-01 15:04:00,70.6,57.6,29.89,West,270,2.0,6.7,63,0.00,,,0.00,WUHU21623XXSP,2013-07-01 19:04:00,
2013-07-01 15:09:00,70.6,57.6,29.89,ENE,67,2.2,2.2,63,0.00,,,0.00,WUHU21623XXSP,2013-07-01 19:09:00,
2013-07-01 15:14:00,70.5,57.9,29.89,WNW,292,7.2,7.2,64,0.00,,,0.00,WUHU21623XXSP,2013-07-01 19:14:00,
2013-07-01 15:19:00,70.5,57.5,29.89,North,0,4.3,7.2,63,0.00,,,0.00,WUHU21623XXSP,2013-07-01 19:19:00,
2013-07-01 15:24:00,70.5,57.5,29.89,NNE,22,0.0,4.3,63,0.00,,,0.00,WUHU21623XXSP,2013-07-01 19:24:00,
2013-07-01 15:29:00,70.5,57.5,29.89,NNE,22,0.0,0.0,63,0.00,,,0.00,WUHU21623XXSP,2013-07-01 19:29:00,
2013-07-01 15:34:00,69.9,56.9,29.89,SE,135,10.5,10.5,63,0.00,,,0.00,WUHU21623XXSP,2013-07-01 19:34:00,
2013-07-01 15:39:00,69.9,56.9,29.88,NE,45,2.9,10.5,63,0.00,,,0.00,WUHU21623XXSP,2013-07-01 19:39:00,
2013-07-01 15:44:00,69.2,56.3,29.89,NE,45,10.7,10.7,63,0.00,,,0.00,WUHU21623XXSP,2013-07-01 19:44:00,
2013-07-01 15:54:00,68.7,56.2,29.88,NNE,22,4.3,4.3,64,0.00,,,0.00,WUHU21623XXSP,2013-07-01 19:54:00,
2013-07-01 15:59:00,68.7,56.2,29.89,NE,45,7.6,7.6,64,0.00,,,0.00,WUHU21623XXSP,2013-07-01 19:59:00,
2013-07-01 16:04:00,68.3,56.3,29.88,ENE,67,3.6,7.6,65,0.00,,,0.00,WUHU21623XXSP,2013-07-01 20:04:00,
2013-07-01 16:09:00,68.1,55.6,29.88,East,90,0.0,3.6,64,0.00,,,0.00,WUHU21623XXSP,2013-07-01 20:09:00,
2013-07-01 16:17:00,67.9,55.9,29.89,NE,45,8.5,8.5,65,0.00,,,0.00,WUHU21623XXSP,2013-07-01 20:17:00,
2013-07-01 16:22:00,67.8,55.8,29.89,NNW,337,2.0,8.5,65,0.00,,,0.00,WUHU21623XXSP,2013-07-01 20:22:00,
2013-07-01 16:27:00,67.8,55.8,29.88,WNW,292,6.9,8.5,65,0.00,,,0.00,WUHU21623XXSP,2013-07-01 20:27:00,
2013-07-01 16:32:00,67.8,55.8,29.89,NE,45,7.4,7.4,65,0.00,,,0.00,WUHU21623XXSP,2013-07-01 20:32:00,
2013-07-01 16:37:00,67.8,55.8,29.88,NE,45,14.3,14.3,65,0.00,,,0.00,WUHU21623XXSP,2013-07-01 20:37:00,
2013-07-01 16:45:00,67.2,55.2,29.89,NE,45,4.9,14.3,65,0.00,,,0.00,WUHU21623XXSP,2013-07-01 20:45:00,
2013-07-01 16:50:00,67.0,55.0,29.88,East,90,12.3,12.3,65,0.00,,,0.00,WUHU21623XXSP,2013-07-01 20:50:00,
2013-07-01 16:55:00,66.9,54.9,29.89,NE,45,14.5,14.5,65,0.00,,,0.00,WUHU21623XXSP,2013-07-01 20:55:00,
2013-07-01 17:00:00,66.7,54.7,29.89,ENE,67,10.3,14.5,65,0.00,,,0.00,WUHU21623XXSP,2013-07-01 21:00:00,
2013-07-01 17:05:00,66.3,54.4,29.89,North,0,5.8,10.3,65,0.00,,,0.00,WUHU21623XXSP,2013-07-01 21:05:00,
2013-07-01 17:10:00,66.3,54.4,29.89,ENE,67,4.9,5.8,65,0.00,,,0.00,WUHU21623XXSP,2013-07-01 21:10:00,
2013-07-01 17:16:00,66.3,54.4,29.88,NE,45,4.9,4.9,65,0.00,,,0.00,WUHU21623XXSP,2013-07-01 21:16:00,
2013-07-01 17:21:00,66.1,54.6,29.88,NNE,22,6.9,6.9,66,0.00,,,0.00,WUHU21623XXSP,2013-07-01 21:21:00,
2013-07-01 17:30:00,65.8,54.3,29.88,NNE,22,11.2,11.2,66,0.00,,,0.00,WUHU21623XXSP,2013-07-01 21:30:00,
2013-07-01 17:36:00,65.6,53.7,29.89,ESE,112,7.4,11.2,65,0.00,,,0.00,WUHU21623XXSP,2013-07-01 21:36:00,
2013-07-01 17:41:00,65.4,53.5,29.89,North,0,1.3,7.4,65,0.00,,,0.00,WUHU21623XXSP,2013-07-01 21:41:00,
2013-07-01 17:46:00,65.4,53.9,29.89,ENE,67,3.4,7.4,66,0.00,,,0.00,WUHU21623XXSP,2013-07-01 21:46:00,
2013-07-01 17:51:00,65.4,53.9,29.89,NE,45,2.5,3.4,66,0.00,,,0.00,WUHU21623XXSP,2013-07-01 21:51:00,
2013-07-01 17:56:00,65.2,53.7,29.90,ENE,67,4.3,4.3,66,0.00,,,0.00,WUHU21623XXSP,2013-07-01 21:56:00,
2013-07-01 18:01:00,65.2,53.3,29.90,ENE,67,3.4,4.3,65,0.00,,,0.00,WUHU21623XXSP,2013-07-01 22:01:00,
2013-07-01 18:06:00,64.9,53.0,29.90,ENE,67,2.9,3.4,65,0.00,,,0.00,WUHU21623XXSP,2013-07-01 22:06:00,
2013-07-01 18:11:00,64.5,52.6,29.89,NE,45,5.8,5.8,65,0.00,,,0.00,WUHU21623XXSP,2013-07-01 22:11:00,
2013-07-01 18:16:00,64.5,52.6,29.89,East,90,2.9,5.8,65,0.00,,,0.00,WUHU21623XXSP,2013-07-01 22:16:00,
2013-07-01 18:26:00,64.3,52.4,29.89,NE,45,5.4,5.4,65,0.00,,,0.00,WUHU21623XXSP,2013-07-01 22:26:00,
2013-07-01 18:31:00,64.2,52.4,29.89,East,90,8.1,8.1,65,0.00,,,0.00,WUHU21623XXSP,2013-07-01 22:31:00,
2013-07-01 18:36:00,64.2,52.4,29.89,NNE,22,1.3,8.1,65,0.00,,,0.00,WUHU21623XXSP,2013-07-01 22:36:00,
2013-07-01 18:41:00,64.3,52.4,29.89,East,90,4.0,4.0,65,0.00,,,0.00,WUHU21623XXSP,2013-07-01 22:41:00,
2013-07-01 18:47:00,64.2,52.4,29.89,NE,45,2.9,4.0,65,0.00,,,0.00,WUHU21623XXSP,2013-07-01 22:47:00,
2013-07-01 18:52:00,64.2,51.9,29.89,NE,45,5.6,5.6,64,0.00,,,0.00,WUHU21623XXSP,2013-07-01 22:52:00,
2013-07-01 18:57:00,64.0,51.7,29.89,East,90,3.6,5.6,64,0.00,,,0.00,WUHU21623XXSP,2013-07-01 22:57:00,
2013-07-01 19:02:00,64.0,51.3,29.89,NNE,22,9.6,9.6,63,0.00,,,0.00,WUHU21623XXSP,2013-07-01 23:02:00,
2013-07-01 19:07:00,63.8,51.1,29.89,NE,45,3.1,9.6,63,0.00,,,0.00,WUHU21623XXSP,2013-07-01 23:07:00,
2013-07-01 19:12:00,63.6,50.9,29.89,NNE,22,8.7,8.7,63,0.00,,,0.00,WUHU21623XXSP,2013-07-01 23:12:00,
2013-07-01 19:17:00,63.6,50.9,29.90,NE,45,6.7,8.7,63,0.00,,,0.00,WUHU21623XXSP,2013-07-01 23:17:00,
2013-07-01 19:22:00,63.4,50.7,29.90,ENE,67,2.5,6.7,63,0.00,,,0.00,WUHU21623XXSP,2013-07-01 23:22:00,
2013-07-01 19:27:00,63.4,50.7,29.90,NE,45,4.9,4.9,63,0.00,,,0.00,WUHU21623XXSP,2013-07-01 23:27:00,
2013-07-01 19:32:00,63.6,50.9,29.89,NNE,22,2.7,4.9,63,0.00,,,0.00,WUHU21623XXSP,2013-07-01 23:32:00,
2013-07-01 19:37:00,63.4,50.3,29.90,North,0,1.3,2.7,62,0.00,,,0.00,WUHU21623XXSP,2013-07-01 23:37:00,
2013-07-01 19:42:00,63.4,50.3,29.90,North,0,5.8,5.8,62,0.00,,,0.00,WUHU21623XXSP,2013-07-01 23:42:00,
2013-07-01 19:47:00,63.4,50.3,29.90,NE,45,9.4,9.4,62,0.00,,,0.00,WUHU21623XXSP,2013-07-01 23:47:00,
2013-07-01 19:52:00,63.4,49.9,29.89,NE,45,2.9,9.4,61,0.00,,,0.00,WUHU21623XXSP,2013-07-01 23:52:00,
2013-07-01 19:57:00,63.3,49.8,29.89,East,90,6.9,6.9,61,0.00,,,0.00,WUHU21623XXSP,2013-07-01 23:57:00,
2013-07-01 20:02:00,63.3,49.8,29.90,East,90,4.5,6.9,61,0.00,,,0.00,WUHU21623XXSP,2013-07-02 00:02:00,
2013-07-01 20:07:00,63.1,49.6,29.90,NNE,22,1.3,4.5,61,0.00,,,0.00,WUHU21623XXSP,2013-07-02 00:07:00,
2013-07-01 20:12:00,63.1,49.6,29.90,SSE,157,2.0,2.0,61,0.00,,,0.00,WUHU21623XXSP,2013-07-02 00:12:00,
2013-07-01 20:17:00,63.1,49.6,29.91,SE,135,3.6,3.6,61,0.00,,,0.00,WUHU21623XXSP,2013-07-02 00:17:00,
2013-07-01 20:22:00,63.1,49.6,29.91,SSE,157,0.0,3.6,61,0.00,,,0.00,WUHU21623XXSP,2013-07-02 00:22:00,
2013-07-01 20:27:00,63.1,49.6,29.91,NNW,337,3.1,3.1,61,0.00,,,0.00,WUHU21623XXSP,2013-07-02 00:27:00,
2013-07-01 20:32:00,62.7,49.2,29.91,NNE,22,6.0,6.0,61,0.00,,,0.00,WUHU21623XXSP,2013-07-02 00:32:00,
2013-07-01 20:37:00,62.7,49.2,29.91,ESE,112,4.7,6.0,61,0.00,,,0.00,WUHU21623XXSP,2013-07-02 00:37:00,
2013-07-01 20:47:00,62.5,49.0,29.91,East,90,5.6,5.6,61,0.00,,,0.00,WUHU21623XXSP,2013-07-02 00:47:00,
2013-07-01 20:52:00,62.4,48.9,29.91,NE,45,5.6,5.6,61,0.00,,,0.00,WUHU21623XXSP,2013-07-02 00:52:00,
2013-07-01 20:57:00,62.2,48.7,29.91,ENE,67,3.4,5.6,61,0.00,,,0.00,WUHU21623XXSP,2013-07-02 00:57:00,
2013-07-01 21:02:00,62.2,48.7,29.91,NNE,22,4.5,4.5,61,0.00,,,0.00,WUHU21623XXSP,2013-07-02 01:02:00,
2013-07-01 21:07:00,62.2,48.7,29.91,NNE,22,7.2,7.2,61,0.00,,,0.00,WUHU21623XXSP,2013-07-02 01:07:00,
2013-07-01 21:13:00,62.2,48.7,29.91,NE,45,2.2,7.2,61,0.00,,,0.00,WUHU21623XXSP,2013-07-02 01:13:00,
2013-07-01 21:18:00,62.0,48.5,29.91,NE,45,6.0,6.0,61,0.00,,,0.00,WUHU21623XXSP,2013-07-02 01:18:00,
2013-07-01 21:23:00,62.0,48.5,29.91,ESE,112,6.7,6.7,61,0.00,,,0.00,WUHU21623XXSP,2013-07-02 01:23:00,
2013-07-01 21:28:00,61.8,48.3,29.91,ENE,67,1.1,6.7,61,0.00,,,0.00,WUHU21623XXSP,2013-07-02 01:28:00,
2013-07-01 21:33:00,61.8,48.3,29.92,ESE,112,0.0,1.1,61,0.00,,,0.00,WUHU21623XXSP,2013-07-02 01:33:00,
2013-07-01 21:38:00,61.8,48.3,29.91,ENE,67,1.6,1.6,61,0.00,,,0.00,WUHU21623XXSP,2013-07-02 01:38:00,
2013-07-01 21:43:00,61.6,48.2,29.91,NE,45,1.6,4.7,61,0.00,,,0.00,WUHU21623XXSP,2013-07-02 01:43:00,
2013-07-01 21:48:00,61.6,48.2,29.91,ENE,67,4.0,4.7,61,0.00,,,0.00,WUHU21623XXSP,2013-07-02 01:48:00,
2013-07-01 21:56:00,61.6,48.2,29.91,ESE,112,5.1,5.1,61,0.00,,,0.00,WUHU21623XXSP,2013-07-02 01:56:00,
2013-07-01 22:01:00,61.6,48.2,29.91,NE,45,4.9,5.1,61,0.00,,,0.00,WUHU21623XXSP,2013-07-02 02:01:00,
2013-07-01 22:06:00,61.6,48.2,29.91,NE,45,6.9,6.9,61,0.00,,,0.00,WUHU21623XXSP,2013-07-02 02:06:00,
2013-07-01 22:13:00,61.8,48.3,29.91,ESE,112,0.0,6.9,61,0.00,,,0.00,WUHU21623XXSP,2013-07-02 02:13:00,
2013-07-01 22:18:00,61.6,48.2,29.91,NE,45,0.9,0.9,61,0.00,,,0.00,WUHU21623XXSP,2013-07-02 02:18:00,
2013-07-01 22:23:00,61.6,48.2,29.91,NNE,22,2.0,2.0,61,0.00,,,0.00,WUHU21623XXSP,2013-07-02 02:23:00,
2013-07-01 22:28:00,61.6,48.2,29.91,ENE,67,2.7,2.7,61,0.00,,,0.00,WUHU21623XXSP,2013-07-02 02:28:00,
2013-07-01 22:33:00,61.6,48.6,29.91,NE,45,5.1,5.1,62,0.00,,,0.00,WUHU21623XXSP,2013-07-02 02:33:00,
2013-07-01 22:38:00,61.6,48.2,29.91,NE,45,2.0,5.1,61,0.00,,,0.00,WUHU21623XXSP,2013-07-02 02:38:00,
2013-07-01 22:47:00,61.6,48.6,29.91,NE,45,6.5,6.5,62,0.00,,,0.00,WUHU21623XXSP,2013-07-02 02:47:00,
2013-07-01 22:53:00,61.6,48.2,29.91,ENE,67,2.5,6.5,61,0.00,,,0.00,WUHU21623XXSP,2013-07-02 02:53:00,
2013-07-01 22:58:00,61.6,48.2,29.90,NNE,22,0.0,2.5,61,0.00,,,0.00,WUHU21623XXSP,2013-07-02 02:58:00,
2013-07-01 23:03:00,61.6,48.2,29.90,NE,45,2.5,2.5,61,0.00,,,0.00,WUHU21623XXSP,2013-07-02 03:03:00,
2013-07-01 23:08:00,61.6,48.6,29.90,ESE,112,6.5,6.5,62,0.00,,,0.00,WUHU21623XXSP,2013-07-02 03:08:00,
2013-07-01 23:13:00,61.5,48.5,29.90,NE,45,0.0,6.5,62,0.00,,,0.00,WUHU21623XXSP,2013-07-02 03:13:00,
2013-07-01 23:18:00,61.6,48.6,29.90,NE,45,8.3,8.3,62,0.00,,,0.00,WUHU21623XXSP,2013-07-02 03:18:00,
2013-07-01 23:23:00,61.6,48.2,29.89,ENE,67,3.8,8.3,61,0.00,,,0.00,WUHU21623XXSP,2013-07-02 03:23:00,
2013-07-01 23:28:00,61.6,48.2,29.90,NE,45,0.9,3.8,61,0.00,,,0.00,WUHU21623XXSP,2013-07-02 03:28:00,
2013-07-01 23:33:00,61.6,48.6,29.89,NE,45,1.1,1.1,62,0.00,,,0.00,WUHU21623XXSP,2013-07-02 03:33:00,
2013-07-01 23:41:00,61.6,48.6,29.89,ENE,67,2.7,2.7,62,0.00,,,0.00,WUHU21623XXSP,2013-07-02 03:41:00,
2013-07-01 23:46:00,61.6,48.6,29.89,NE,45,6.3,6.3,62,0.00,,,0.00,WUHU21623XXSP,2013-07-02 03:46:00,